SMRA10 UAOL 210900
AAXX 21091
11001 35/// /0804 10043 21030 39609 40359 50006 333 55300=
11008 35/// /1102 10080 21035 39631 40355 50002 333 55300=
11010 15982 13603 10056 21023 39982 40370 50002 60005 333 81080=
11012 32986 20502 10043 21023 39886 40369 50002 81011 333 55300=
11018 35/// /0602 10057 21015 30041 40369 50000 333 55300=
11019 42986 61001 10078 21037 39632 40363 50006 80001 333 86080=
11020 35/// /2801 10065 21040 39751 40367 50002 333 55300=
11021 32960 41601 10077 21034 39692 40366 50004 80002 333 55300=
11022 35/// /1901 10074 21004 39974 40368 51007 333 55300=
11024 35/// /0804 10053 21048 39223 48622 53007 333 55300=
11025 35/// /0000 10078 21030 39673 40361 50005 333 55300=
11027 35/// /2602 10051 21026 30122 40379 51007 333 55300=
11030 42986 53602 10070 21015 30157 40376 50004 80001 333 85080=
11032 32970 32401 10082 21008 30115 40370 50003 80001 333 55300=
11034 35/// /0701 10087 21036 30151 40372 50005 333 55300=
11035 32977 60902 10084 21014 30113 40370 50006 80001 333 55300 86080=
11036 15974 53602 10074 21028 30146 40373 50003 60005 333 85080=
11037 35/// /0501 10076 21018 30184 40375 50006 333 55300=
11040 35/// /2601 10082 21012 30127 40374 53004 333 55300=
11051 35/// /1004 10063 21018 39878 40355 50001 333 55300=
11053 32982 00802 10068 21024 39834 40359 50003 80000 333 55300=
11055 35/// /1401 10064 21018 39975 40362 50000 333 55300=
11059 35/// /0702 10055 21024 39981 40369 50000 333 55300=
11060 27/// /1001 10077 21021 30043 40367 50001 7//4/ 333 55300 69917=
11070 35/// /0000 10075 21032 30123 40376 50003 333 55300=
11075 35/// /0000 10074 21013 30119 40380 51006 333 55300=
11078 35/// /0501 10059 21040 39526 40365 50004 333 55300=
11080 45/// /1901 10100 21028 30093 40372=
11082 35/// /1401 10094 21013 30109 40382 50004 333 55300=
11083 35/// /3601 10075 21025 39808 40366 51008 333 55300=
11085 35/// /3101 10068 21011 30192 40375 50005 333 55300=
11101 42970 03401 10065 21014 39793 40326 52005 80000 333 55300=
11105 42980 03601 10071 21021 39792 40323 52003 80000 333 55300=
11110 42989 00907 11006 21168 37992 48595 52012 80000 333 55300=
11112 35/// /1502 10039 21078 39384 40357 58006 333 55300=
11119 35/// /1904 11001 21075 38952 48597 50000 333 55300=
11120 15982 03603 10042 21036 39632 40355 58007 60005 80000=
11121 35/// /2903 10040 21036 39644 40359 58008 333 55300=
11126 35/// /1609 10011 21270 37836 48594 53013 333 55300=
11127 35/// /0000 10016 21177 38148 48597 51010 333 55300=
11130 35/// /2402 10046 21033 39753 40357 50000 333 55300=
11136 32970 01602 10008 21072 39156 48604 50000 80000 333 55300=
11138 42984 11605 10006 21186 37775 47154 53013 80001 333 55300 81072=
11140 35/// /1303 10056 21041 39598 40351 58001 333 55300=
11141 35/// /1101 10031 21047 39699 40374 58006 333 55300=
11146 42989 01305 11046 21220 37038 47157 53013 80000 333 55300=
11148 35/// /1101 10003 21093 39122 48614 58003 333 55300=
11149 35/// /1205 11024 21134 38357 48610 50010 333 55300=
11150 15985 11604 10061 21043 39807 40351 50002 60005 333 81080=
11152 35/// /0404 10043 21020 39738 40358 50002 333 55300=
11153 35/// /1103 10061 21019 39768 40357 50001 333 55300=
11155 32988 11402 10012 21181 38482 48604 51009 80001 333 55300 81072=
11157 42986 23602 10016 21043 39585 40384 58001 80001 333 82080=
11161 35/// /1703 10009 21068 38936 48614 51010 333 55300=
11170 35/// /1101 10039 21038 39622 40369 58003 333 55300=
11171 35/// /1602 10034 21043 39326 40365 58001 333 55300=
11180 35/// /1803 11005 21080 38563 48617 51010 333 55300=
11182 42984 53601 10085 21036 30025 40376 50003 80001 333 85080=
11190 32970 52102 10101 21030 30142 40366 51006 85001 333 55300 85076=
11192 35/// /1901 10085 21061 30045 40374 51007 333 55300=
11201 35/// /0902 10015 21058 39079 48611 58001 333 55300=
11204 35/// /1301 10042 21042 39567 40379 58003 333 55300=
11213 35/// /0000 10054 21032 39780 40387 51006 333 55300=
11214 32982 02301 10032 21052 39138 48617 51008 80000 333 55300=
11220 35/// /0000 10020 21069 39332 40385 50003 333 55300=
11225 35/// /1202 10034 21046 39516 40382 50003 333 55300=
11227 35/// /1501 10050 21031 39715 40383 50006 333 55300=
11229 35/// /1401 10051 21030 39889 40389 50004 333 55300=
11231 15783 13601 10044 21037 39803 40389 50007 60005 333 81856=
11232 35/// /3301 10042 21015 39734 40386 51009 333 55300=
11240 15980 03601 10073 21030 39930 40376 50007 60005 80000=
11241 35/// /1403 10000 21061 38688 48614 51012 333 55300=
11244 35/// /0000 10095 21035 30042 40375 50007 333 55300=
11265 35/// /0712 11042 21251 37937 48617 51014 333 55300=
11272 35/// /3101 10034 21040 39721 40391 50002 333 55300=
11275 35/// /2403 10015 21053 39310 40389 51008 333 55300=
11280 35/// /1801 10030 21070 39395 40379 58002 333 55300=
11285 35/// /0501 10078 21032 39942 40378 50007 333 55300=
11290 35/// /3001 10089 21047 39910 40372 50007 333 55300=
11296 35/// /1401 10074 21030 30053 40381 50008 333 55300=
11298 35/// /3501 10086 21041 39980 40373 50009 333 55300=
11301 35/// /0302 10044 21031 39467 40329 53005 333 55300=
11302 35/// /0102 10063 21029 39827 40325 53004 333 55300=
11304 35/// /0000 11018 21070 39097 48569 52006 333 55300=
11308 35/// /1201 10009 21122 38624 48586 51004 333 55300=
11312 35/// /2101 11020 21071 38529 48604 52005 333 55300=
11314 35/// /2402 10039 21066 39322 40331 56002 333 55300=
11316 35/// /0902 11011 21215 37278 47157 53014 333 55300=
11318 42986 01309 11043 21271 36758 47151 52014 80000 333 55300 90730 91116=
11325 35/// /2304 10043 21042 39705 40362 58005 333 55300=
11330 25/// /0101 10054 21048 39578 40354 58003 333 55300 69907=
11331 35/// /1802 10049 21027 39833 40390 51008 333 55300=
11337 35/// /1502 10017 21145 38470 48598 53011 333 55300=
11340 27/// /1010 10015 21220 38132 48596 53009 7//4/ 333 55300 69907=
11343 45/// /1305 11046 21220 37038 47157 53013 333 55300=
11346 35/// /1902 10003 21063 39234 48601 57004 333 55300=
11349 35/// /0602 10000 21141 38477 48615 53008 333 55300=
11350 35/// /0901 10077 21030 39836 40346 50001 333 55300=
11362 35/// /1004 10031 21060 39474 40381 50001 333 55300=
11365 35/// /1301 10031 21055 39556 40385 50002 333 55300=
11384 35/// /0401 10005 21069 38816 48612 50007 333 55300=
11385 35/// /1305 10068 21039 39247 48623 52006 333 55300=
11387 35/// /3401 10085 21037 30143 40374 50003 333 55300=
11389 32980 02201 10074 21031 30040 40373 53003 80000 333 55300=
11390 35/// /0000 10087 21029 39960 40373 50004 333 55300=
11393 35/// /1001 10097 21014 30121 40367 50005 333 55300=
11395 35/// /0000 10089 21011 30220 40370 50005 333 55300=
11406 22977 19901 10066 21009 39767 40365 54000 80001 333 60005 81080 555 359// 50029 60028 70039 8//// 90050=
11414 22986 22902 10086 21013 39626 42938 50003 80001 333 60005 82070 555 350// 50033 60032 70041 80044=
11423 22985 10803 10067 21053 39463 42936 52006 80001 333 60005 81080 555 342// 50022 60023 70032 80034=
11438 22981 39902 10113 20008 39960 40356 51003 80001 333 60005 83072 555 348// 50052 60052 70061 80064 90058=
11450 22977 19902 10067 21003 39912 40367 53001 80001 333 60005 81073 555 12002 361// 50042 60044 70051 80059=
11457 22984 30804 10048 21097 39035 48623 51005 80001 333 60005 83078 555 334// 50004 60005 70004 80013=
11464 42985 12701 10065 21019 39362 42942 53008 80001 333 81080 555 355//=
11487 22982 39901 10063 21032 39731 40369 50003 80001 333 60005 83080 555 351// 50033 60037 70040 80053 90055=
11502 21980 13001 10090 21016 39898 40360 51005 70411 80001 333 60005 81073 555 348// 50037 60038 70044 80047 90045=
11509 22986 09901 10069 21005 30169 40369 51003 333 60005 555 359// 50048 60048 70055 80062 90058=
11518 22982 22101 10091 21035 39915 40360 50005 80001 333 60005 82080 555 341//=
11520 22982 29902 10080 21041 39991 40365 50003 80001 333 60005 82075 555 342// 50044 60041 70049 80062 90064=
11538 22981 12202 10043 21030 39750 40374 51005 80001 333 60005 81070 555 359// 50038 60037 70053 80053=
11546 25/79 /0000 10070 21035 39874 40369 50002 333 60005 555 347// 50020 60038 70048 80063 90069=
11567 22980 01702 10083 21030 30016 40368 50005 333 60005 555 345// 50037=
11603 22578 73001 10093 20004 39870 40358 52008 87500 333 60005 87630 555 354// 50044 60044 70045 80049 90048=
11624 22970 13202 10074 21022 30074 40371 52005 80001 333 60005 81073 555 351// 50041=
11628 22981 19901 10077 21033 39718 40364 52005 80001 333 60005 81081 555 345// 50036 60038 70043 80052 90052=
11636 22981 41601 10075 21023 39671 42940 50004 80002 333 60005 84080 555 350// 50015 60024 70033 80047 90051=
11643 22981 20601 10081 20007 39374 42932 52007 81031 333 60005 81363 555 360// 50003 60003 70005=
11652 22970 42902 10077 21026 30088 40368 50005 80001 333 60005 84077 555 348// 50036=
11659 22980 29901 10057 21028 39716 40371 52007 80002 333 60005 82080 555 354// 50025 60027 70025 80045 90053=
11669 22981 22201 10074 21015 39461 42931 52007 80001 333 60005 82072 555 353// 50014 60010 70011 80019 90034=
11679 22980 69901 10070 21012 39870 40366 52005 80001 333 60005 86080 555 356// 50027 60032 70043 80047 90053=
11683 22981 33403 10071 21039 39473 42938 52009 80001 333 60005 83072 555 1//03 346// 50020 60020 70028 80034=
11692 22980 33301 10074 21025 39786 40364 52004 80001 333 60005 83074 555 349// 50033=
11693 22974 39902 10086 21018 39874 40365 50003 80001 333 60005 83080 555 348// 50030 60035 70040 80052 90055=
11698 22980 69901 10086 21018 39953 40368 50004 80004 333 60005 86076 555 348// 50047 60039 70049 80057 90063=
11710 22983 33303 10089 21042 39733 40355 52007 80002 333 60005 83080 555 339// 50034 60033 70043 80054=
11723 22964 52201 10066 21018 30064 40369 50002 80004 333 60005 85073 555 355// 50027 60032 70047 80055 90060=
11730 22381 69902 10018 21007 38809 48619 52010 86501 333 60005 86607 555 384//=
11766 22573 79901 10077 21019 39453 42933 52008 82501 333 60005 82624 86075 555 351// 50013 60017 70024 80037=
11774 22965 61701 10056 21026 30093 40373 52003 80002 333 60005 86074 555 356//=
11782 22670 72405 10075 21016 30044 40365 52004 875// 333 60005 87644 555 353// 50042 60041=
11787 22482 49902 10027 21077 38810 48620 52012 82501 333 60005 82610 84071 555 346// 50003 60006 70007 80011=
11801 42970 50201 10087 21035 30119 40379 50004 80001 333 85070 555 10371 342//=
11812 46/69 /2403 10087 21035 39656 42929 51006 70000=
11813 42970 42303 10091 21028 30012 40366 51007 80006 333 84073=
11816 42980 59902 10084 21011 30204 40371 52004 80001 333 85070=
11819 46/// /9901 10092 21018 30155 40375 52003=
11826 42980 49902 10080 21012 30164 40368 50002 80002 333 84070=
11841 42970 59901 10055 21019 39985 40371 58001 80002 333 85070=
11855 42970 59901 10087 21017 30199 40368 50002 80004 333 85070=
11856 46/// /9902 10086 21036 30042 40365 52004=
11858 42967 39901 10079 21013 30227 40372 50004 80004 333 83070=
11867 42981 59901 10084 21041 30043 40365 58002 80001 333 85072=
11880 42975 39901 10077 21018 30195 40370 56001 80001 333 83070=
11900 46/67 /3501 10081 21022 30027 40367 58003 70000=
11903 42982 69902 10052 21028 39979 40370 58001 80002 333 86070=
11916 42989 63407 11019 21122 38093 48594 52010 80006 333 86263=
11918 42986 43102 10047 21033 39520 42929 53014 80002 333 84070=
11927 42980 50000 10081 21028 30100 40366 51003 80001 333 85070=
11930 42589 63307 11031 21060 37466 47157 52010 81042 333 81330 86060 444 18205=
11933 42988 59901 10052 21073 38802 48612 52012 80002 333 85070=
11934 42882 49901 10053 21043 39517 42929 51005 81141 333 81856 84070=
11938 42984 69901 10054 21059 39270 42920 51004 80008 333 86270=
11952 46/// /3502 10053 21040 39506 42927 52005=
11955 42980 52002 10074 21053 39978 40356 58001 80001 333 85070 555 10345 340//=
11958 46/70 /3604 10033 21093 38888 48602 51010 70000=
11968 42982 39902 10079 21039 30074 40360 58001 80001 333 83070=
11976 42970 49901 10075 21025 30087 40356 58004 80001 333 84070=
11978 42975 49901 10091 21028 30226 40358 50000 80001 333 84070=
11993 42975 40000 10082 21033 30136 40356 58003 80001 333 84073=
12105 41457 82404 10090 20077 30272 40315 51003 71022 885// 333 88611 91204=
12115 41250 82605 10075 20072 30289 40304 52001 71042 886// 333 91014 91114 91206=
12120 41140 82508 10064 20064 30297 40301 52005 75142 886// 333 91210=
12125 45/67 /2507 10074 20059 30252 40301 51005 333 91207 91305=
12135 42768 72704 10070 20046 30295 40299 52007 8157/ 333 91204=
12160 42565 72506 10080 20031 30073 40302 52010 81158 333 91206=
12185 42566 72806 10084 20036 30158 40295 52008 84538 333 91206=
12195 42463 72704 10066 20034 30059 40290 51013 875// 333 91206=
12200 41458 62303 10106 20075 30315 40323 52008 71022 86500 333 91008 91108 91204=
12205 41458 72304 10107 20068 30321 40330 51006 71022 875// 333 87616 91205=
12210 47/58 /2305 10100 20076 30257 40323 52006 710// 333 91205 91304=
12215 47/// /2604 10093 20063 30144 40316 52005 7////=
12230 42562 72805 10108 20062 30234 40325 50005 85531 333 91205=
12235 42462 72804 10086 20056 30105 40318 51007 8653/ 333 86614 91009 91109 91205=
12250 42575 52704 10110 20040 30231 40320 50006 83238 333 91204=
12270 42575 63005 10094 20042 30128 40311 52008 84208 333 91207=
12272 42468 62704 10096 20029 30132 40301 51004 81138 333 91110 91206=
12280 42567 72806 10081 20027 30139 40298 52009 85508 333 91011 91111 91206=
12285 47/50 /9903 10096 20032 30191 40308 52008 710//=
12295 42577 73004 10084 20020 30107 40295 52008 875// 333 91109 91204=
12300 41458 72803 10108 20067 30248 40340 51009 71022 878// 333 83814 91204=
12310 42565 82803 10106 20063 30279 40346 52010 885// 333 91203=
12330 42465 72905 10108 20062 30227 40336 51009 875// 333 91205=
12345 45/69 /2905 10099 20055 30184 40330 51007 333 91205 91304=
12360 45/65 /3004 10092 20056 30185 40320 52009 333 91204 91304=
12375 42572 72905 10099 20047 30186 40317 51008 878// 333 91206=
12385 42565 72804 10090 20038 30116 40308 50005 878// 333 91204=
12399 42566 72804 10089 20031 30131 40301 50003 878// 333 91205=
12400 42565 72903 10090 20048 30109 40347 52008 875// 333 91203=
12415 42580 83203 10098 20023 30199 40354 52011 885// 333 91203=
12418 42570 72705 10115 20051 30229 40344 51008 878// 333 91206=
12424 42470 82903 10097 20032 30202 40352 52011 875// 333 91204=
12435 42663 72704 10083 20050 30166 40340 52008 875// 333 91204=
12455 42563 82604 10065 20008 30097 40345 51007 875// 333 91204=
12465 42666 82605 10084 20040 30110 40335 52007 885// 333 91205=
12469 42562 82504 10073 20025 30102 40337 51007 885// 333 91205=
12488 42667 82604 10080 20022 30164 40322 52005 875// 333 91204=
12495 42568 82905 10066 20010 30028 40325 52005 885// 333 91205=
12497 41670 72806 10079 20026 30088 40310 51006 70182 875//=
12500 42665 71701 10074 20023 39936 40361 51006 875// 333 91201=
12510 41784 52203 10013 21006 38499 48615 52011 70142 82038 444 56005=
12520 42570 59901 10054 21007 39924 40369 51005 83532 333 83632 91201=
12530 42660 81901 10070 20011 30153 40358 51008 885// 333 91202=
12540 42662 81403 10054 20006 30106 40365 52006 885// 333 91203=
12550 45/62 /2402 10058 21011 39984 40352 51008 333 91202 91302=
12560 42660 82102 10052 21015 30012 40362 51009 885// 333 91203=
12566 42660 72203 10058 21011 30059 40361 51007 875// 333 91204=
12570 41559 82601 10056 20006 30018 40344 51003 71022 885// 333 91202=
12575 45/66 /2802 10076 21027 30089 40349 50000 333 91202 91301=
12580 42580 82507 10068 21024 30073 40343 55000 885// 333 91209=
12585 47550 /2503 10058 21007 30063 40336 51004 710// 333 91204 91303=
12595 42666 82706 10049 21003 30050 40328 51003 885// 333 91207=
12600 42682 72603 10081 21031 39869 40360 51008 875// 333 91203=
12625 42981 62601 10062 21119 39331 42925 50006 81039 333 91202=
12650 42984 70505 11016 21136 38100 48605 51010 80008 333 91206=
12660 47/61 /2301 10070 21017 39989 40355 58005 710// 333 91201 91301=
12670 42668 72904 10061 21028 39937 40348 58002 875// 333 91204=
12690 42974 73002 10063 21026 39830 40350 58003 81038 333 91202=
12695 47/// /2605 10070 21027 39995 40341 54000 700//=
12756 46/// /0000 10073 21030 30175 40367 58001 555 10048=
12766 46/// /2204 10080 21058 39978 40361 52001 555 10037 55074=
12772 46/// /0802 10099 21037 30157 40358 58001 555 10038=
12786 46/// /3402 10095 21034 30225 40355 50002 555 10040=
12805 46/// /1402 10098 21038 30227 40375 50005 555 10038=
12812 41982 20202 10089 21024 30123 40374 51010 70300 80002 555 10045=
12815 46/// /2801 10081 21037 30220 40372 50005 555 10043=
12822 46/// /3001 10071 21018 3//// 4//// 5//// 555 10053=
12830 46/// /2401 10092 21047 30021 40368 50008 555 10037=
12836 46/// /1901 10074 21013 30215 40371 50004 555 10054=
12843 41970 82603 10092 21040 30194 40367 50005 70011 80007 555 10039=
12846 46/// /2701 10092 21027 30235 40367 50004 555 10043=
12847 46/// /0201 10067 21022 30230 40369 50004 555 10053=
12851 41975 60101 10037 21060 39151 42928 51009 70111 81036 555 10049=
12860 42980 20201 10097 21050 30253 40364 51006 80002 555 10035 /7690=
12866 46/// /1002 10099 21031 30251 40363 51006 555 10040=
12870 46/// /2701 10103 21061 30083 40362 50002 555 10031=
12882 41980 70103 10097 21046 30225 40359 51005 70222 80008 555 10036=
12892 46/// /0303 10098 21035 30178 40354 50004 555 10039=
12910 46/// /0201 10079 21042 39988 40375 50009 555 10042=
12915 46/// /3602 10068 21032 30075 40375 51011 555 10049=
12922 41980 23102 10079 21021 30218 40369 50005 70300 80002 555 10049=
12925 46/// /3601 10078 21034 30197 40372 51007 555 10045=
12935 41982 53502 10068 20003 30235 40372 50007 70311 80006 555 10063=
12942 41982 11001 10102 21042 30119 40367 51011 70300 80002 555 10036=
12950 41981 21001 10098 21035 30244 40366 50006 70300 80002 555 10039=
12960 46/// /1301 10106 21031 30226 40365 50009 555 10038=
12970 42980 21601 10102 21058 30224 40365 50004 80002 555 10032 /7668=
12982 41982 00602 10106 21042 30260 40363 50007 70200 555 10035=
12992 41975 20303 10099 21031 30251 40361 52004 70300 80001 555 10040=
13067 42960 00901 10113 21037 30234 40365 50011=
13160 42960 13201 10102 21034 30251 40361 51009 80001=
13168 42970 02601 10093 21013 30259 40368 51012=
13173 42970 00303 10124 21032 30253 40354 50007=
13174 42970 00203 10115 21047 30256 40357 50005=
13180 42970 00506 10124 21040 30242 40353 50004=
13183 42960 00103 10107 20006 30249 40355 50006=
13262 42965 02301 10100 20028 30211 40361 51016=
13266 42970 02402 10110 21011 30260 40362 51009=
13269 42980 00901 10115 21015 30141 40357 51008=
13272 32960 00201 10097 21020 30241 40363 52010=
13274 42970 00402 10099 21019 30193 40356 50005=
13278 42670 73502 10100 21002 30122 40351 52007 87500=
13279 42970 33603 10111 21008 30199 40347 52005 83030=
13285 42970 22502 10111 20030 30240 40344 52003 82030=
13289 42570 7//// 10045 20000 39112 48604 51014 87500=
13295 42660 80201 10096 20060 30286 40341 52011 885//=
13363 41970 82301 10054 21009 39415 48618 51012 70211 8807/=
13367 42570 80602 10041 21029 39135 48612 50012 885//=
13369 42675 80201 10035 21019 39121 48586 52013 885//=
13370 42665 73101 10089 21002 39971 40352 50005 87500=
13376 42970 82702 10094 20012 30086 40353 50012 8807/=
13378 42470 80702 11002 21011 38383 48602 51002 885//=
13383 42670 81801 10096 21002 30142 40346 50002 8257/=
13384 42670 73202 10100 20012 30200 40354 52009 85530=
13388 41665 83102 10087 20006 30099 40351 52011 72162 885//=
13389 42665 8//// 10092 20006 30057 40343 51012 885//=
13397 42970 83204 10086 21002 39790 40334 51007 8807/=
13457 41970 00103 10207 20023 30258 40264 52007 70211 80000=
13459 41670 50204 10114 20030 39526 40288 51016 70211 81230 333 81841 853//=
13461 41970 10208 10183 20029 30259 40266 52008 70211 80001 333 90730 91117=
13462 41960 20206 10173 20011 30241 40281 50001 70211 82030 333 82360=
13463 41970 13605 10171 20018 30230 40290 50003 70211 81030 333 90730 91111=
13489 42660 60605 10102 20002 39806 40328 50006 81570=
13493 42698 50504 10118 20024 39494 40304 52008 83530 333 83696=
13571 42698 80000 10090 20045 39784 40326 52011 885// 333 88696=
13575 42697 83601 10056 20015 3//// 4//// 52007 886// 333 84696 88796=
13576 42598 80902 10019 20004 3//// 4//// 5//// 88500 333 88696=
13577 42598 70503 10061 21009 38767 48585 52010 87500 333 87595=
13578 42598 4//// 10136 20042 39393 48597 52008 83501 333 83695 81199=
13579 32780 43602 10123 20022 39460 40290 5//// 84800 333 84650=
13580 42898 50000 10104 20033 3//// 4//// 5//// 85070 333 84398 81498=
13581 42698 60502 10086 20045 39312 48571 51007 86500 333 86696=
13583 42698 73201 10107 20028 39606 40300 52010 87500 333 87696=
13585 42697 63603 10107 20023 39500 40292 52007 86500 333 86696=
13586 32970 72802 10108 20023 30038 40331 52003 87500 333 87650=
13588 42697 82303 10107 20012 39961 40325 52011 8357/ 333 83596 82398 83498=
13590 42698 73406 10068 20014 39297 48580 52007 87696 333 87696=
13591 42697 73203 10122 20030 39918 40311 50008 82570 333 82696 84499=
13592 42998 73201 10122 20023 30168 40323 51005 87070 333 83499 84399=
13594 42698 52702 10100 20023 39697 40316 53009 85500 333 85696=
13595 42698 33601 10132 20038 3//// 4//// 5//// 82501 333 82696=
13597 42998 63608 10152 20035 30230 40302 52015 86030 333 86399=
13598 42698 73201 10099 20035 39324 48586 51005 87500 333 87696=
13600 42970 02706 10150 20060 30236 40288 52008=
13601 42965 23304 10200 20028 30113 40211 52014 80001=
13602 42960 20000 10205 21025 39952 40245 5//// 80001=
13610 42760 50412 10094 20023 39880 40310 52024 85500 333 85656=
13611 42960 03604 10162 20084 30142 40232 52023=
13615 45982 /0906 10216 20037 30207 40251 51005 8////=
13619 42665 40000 10058 20040 39527 42898 52014 84500 333 84643=
13622 42965 42204 10176 20115 30220 40227 52009 84030 333 84360=
13623 42970 00406 10162 21033 30270 40276 52016=
13624 42970 42702 10198 20055 30192 40230 52014 84011 333 82460=
13625 42970 10000 10160 20070 30006 40234 52012 81010 333 81460=
13629 42762 70404 10086 20070 39207 42850 52008 87500 333 87650=
13632 42665 30408 10180 20062 30113 40275 52017 83200 333 83840=
13633 42965 21408 10210 20111 30203 40240 52009 82030 333 82360=
14006 47/// ///// 11014 29055 48/// 700//=
14007 47/20 /2601 10038 21046 39332 48617 5/005 700// 333 553// 22032 58032 90705 91102=
14008 42/89 11104 11048 21149 37584 47141 52013 80001 333 553// 22301 30220 58060 90705 91110=
14010 47/80 /2301 10075 21054 39743 40361 5/006 700// 333 553// 21993 58032 90705 91102=
14012 47/// ///// 10047 29051 48/// 700//=
14014 42984 11101 10079 21042 39897 40366 51007 80001 333 553// 22027 58039 90705 91103=
14015 42986 00602 10081 21037 30000 40366 50003 80000 333 553// 21994 30270 58037 90705 91103=
14021 47970 03302 10055 21025 48/// 700// 333 553// 22025 90705 91104=
14023 46/// /2601 10070 21015 30077 40379 5/006 333 553// 21984 58039 90705 91103=
14024 47982 00404 10014 21051 39242 48613 5/015 700// 333 58043 90705 91108=
14026 42980 00304 10085 21024 30049 40376 50008 80000 333 553// 21949 30239 58033 90705 91105=
14031 47982 02402 10082 21011 30144 40376 5/005 700// 333 553// 22009 31903 58034 90705 91104=
14105 42984 10605 10133 21035 30318 40322 51005 80001 333 553// 21966 30254 58015 90705 91110=
14106 47984 01006 10116 21041 30266 40335 5/004 700// 333 553// 21986 30228 58016 90705 91111=
14112 42960 00604 10069 21047 48/// 80000 333 90705 91111=
14118 47/// ///// 10077 29038 48/// 700//=
14120 47/82 /0703 10097 21013 30177 40372 5/005 700// 333 553// 21955 58042 90705 91105=
14121 47983 00504 10083 21032 30110 40373 5/005 700// 333 553// 21992 30272 58043 90705 91107=
14122 42984 00803 10089 21024 30175 40375 50008 80000 333 553// 22021 30346 58043 90705 91105=
14216 42975 01004 10125 21036 30176 40329 52011 333 92333 92438=
14219 41450 20902 10046 21046 39320 48614 51008 7100/ 81101=
14232 42984 10603 10097 21041 30226 40364 51008 80001=
14234 42980 00402 10102 21015 30124 40374 51010=
14235 41965 10202 10030 21041 39175 48611 52013 703// 80001=
14236 42984 10502 10095 21033 30164 40365 51009 80001=
14240 42980 00803 10102 21036 30207 40365 51004=
14241 42982 10605 10104 21041 30239 40371 51008 80001=
14244 42981 10505 10094 21021 30239 40371 51008 80001=
14246 42975 13401 10081 20000 30164 40373 50009 80001=
14248 42970 10503 10095 21030 30193 40374 51009 80001=
14253 42960 10202 10096 21031 30199 40375 51010 80001=
14256 42980 20102 10064 21022 30051 40377 52014 80001=
14258 42970 23604 10102 21036 30175 40366 52013 80001=
14280 42960 23201 10097 21011 30251 40362 50009 80009=
14284 42970 00801 10103 21023 30254 40364 50005=
14307 42984 00609 10119 21028 30239 40317 53009=
14308 42984 01001 10111 21032 39959 40314 54005=
14314 42970 03502 10134 20036 30240 40305 52008 333 92311 92418=
14317 42980 00507 10115 21047 30221 40326 52011=
14321 42980 12402 10151 20019 30273 40297 52011 80001 333 92302 92428=
14323 42980 01011 10112 21042 30279 40313 52006 333 91022 92323 92438=
14324 42965 01112 11030 21036 38480 48579 52012=
14328 42965 00303 10076 21040 39961 40364 51006=
14330 42984 03602 10071 21032 39642 40320 54000=
14370 42960 11702 10104 21010 30245 40355 51002 81030=
14382 42965 03301 10096 21012 30245 40367 52011=
14428 42970 12601 10131 20056 30291 40298 52009 80004 222// 00116 333 92311=
14431 42980 00505 10155 20001 30194 40295 51009=
14438 42982 10105 10160 20016 30188 40279 51010 80002 333 92322=
14441 42970 12001 10154 20069 30252 40276 52014 80009 333 92301=
14442 42975 13605 10140 20008 39979 40285 51007 81030=
14443 42998 034// 10154 20070 30190 40284 52014 333 92312=
14444 42980 11205 10162 20028 30255 40281 50007 81030=
14445 42682 31503 10151 20014 30125 40279 52013 81509 333 81696 81199 81099 92311=
14447 42983 12002 10176 20053 30250 40281 52016 81041 333 92311=
14452 42983 10406 10140 20032 30055 40280 51014 80009 333 92312=
14454 42975 31602 10155 20079 30217 40277 51013 82039 333 92322=
14462 42980 20205 10169 20035 30276 40282 51012 82030 333 923//=
14472 42980 00306 10185 20005 30200 40264 52020 222// 00147 333 92312=
14474 42982 03605 10179 20013 30077 40266 51010=
14528 42970 03402 10097 21013 30050 40352 51012=
14537 42970 03201 10098 20009 30139 40333 51009=
14543 41558 10802 10059 20019 39825 40349 50003 71000 81100 333 81820=
14544 42670 13402 10082 20002 39670 40346 50004 81100 333 81843=
14549 42670 60301 10100 20025 39933 40351 50006 86800 333 82840 86650=
14554 42865 13602 10082 21029 30093 40371 52010 81040 333 81357=
14557 41960 11801 10063 20039 39997 40374 50011 70142 81030 333 81360=
14640 42670 21601 10084 20023 39469 48615 55000 82500 333 82643=
14648 42970 20505 10151 20022 30177 40297 53015 82030 333 82360=
14650 41240 71602 10016 21008 39232 48638 52009 71042 87600 333 87705=
14652 41/00 90904 11063 21063 38018 48595 53007 74544 333 89///=
14654 42768 71303 10070 21009 39575 40332 50005 83570 333 83650 85457=
14657 46/// /0201 10157 20028 30266 40279 52014=
15000 21996 72604 10072 2//// 30022 40346 50000 71022 87070 333 55309 60007 91006 91107=
15004 22998 00000 10068 21006 30013 40357 50003 333 60007 91001 91102=
15007 22998 73203 10073 21052 39864 40344 54001 80008 333 60007=
15010 22998 82401 10067 21003 30205 40360 52007 80007 333 60007 91002 91102=
15014 22997 62602 10062 20006 30122 40354 51007 80008 333 60007 91003 91104=
15015 22698 70201 10054 21012 39735 42920 52004 81108 333 60007 91003 91103=
15020 22997 82903 10090 21035 30138 40339 58005 84077 333 60007=
15023 22598 73004 10070 21028 39889 40324 58003 81206 333 60007 91006 91106=
15025 22997 73105 10082 20015 30198 40337 57004 80006 333 60007 91007 91107=
15033 22998 30801 11023 21057 38295 48592 53008 83070 333 55300 0//// 20563 3//// 60007 91002 91104 95000 95100=
15042 26/// /0502 10075 21040 30201 40358 52006 333 55310 0//// 21800 3//// 60007=
15044 26/// /3601 10079 21032 30157 40358 50005 333 55300 0//// 21436 3//// 60007 91105=
15047 22697 33601 10068 20010 39901 40352 54001 81201 333 55310 0//// 21682 3//// 60007 91002 91102=
15056 22997 83304 10085 21042 39980 40337 57002 82047 333 55309 0//// 21376 3//// 60007 91007 91107=
15063 22997 23301 10076 21025 39988 40355 52006 80001 333 60007 91003 91104=
15069 22598 42000 10037 21016 39235 42911 54001 84200 333 60007 91002 91102=
15073 22598 50102 10083 21019 39865 40342 57004 82201 333 60007 91004 91104=
15080 22997 00303 10085 21047 30189 40360 52005 333 60007 91005 91106=
15083 22597 62501 10069 20054 30051 40341 52003 81208 333 55310 0//// 2//// 3//// 60007 91001 91102=
15085 22597 31901 10087 20009 39890 40340 54001 82201 333 60007 91002 91102=
15088 21098 63404 11051 21060 38044 48588 52007 70341 84540 333 55310 0//// 22039 3//// 60007 91005 91108 95183=
15090 22997 62702 10097 20003 30249 40343 57005 80008 333 55310 01118 22000 30420 60007 91005 91105=
15094 22597 53401 10069 21015 39859 40349 54001 83201 333 55310 0//// 22026 3//// 60007 91004 91104=
15095 22998 03001 10071 21035 39944 40357 52003 333 55310 0//// 21484 3//// 60007 91003 91103=
15099 23/// /3502 10070 21037 39668 42923 52003 333 553// 60007 91006 91106=
15107 21598 41502 10056 20009 39514 42916 58006 70242 84300 333 60007 91003 91103 95000=
15108 22298 40000 11058 21067 38168 48585 54001 81541 333 55310 0//// 22156 3//// 60007 910// 911// 95100=
15109 22598 22704 10078 20001 39896 40340 57006 81240 333 60007 91006 91106=
15111 22597 43402 10090 21017 30066 40334 58004 82201 333 60007=
15113 22597 63104 10095 21022 30172 40339 57005 82206 333 55310 0//// 22082 3//// 60007 91006 91106=
15117 22998 10502 10095 21031 30150 40353 52002 80001 333 55310 0//// 21994 3//// 60007 91004 91104=
15118 22997 12802 10041 21051 39032 48600 54001 80001 333 60007 91005 91105=
15119 22998 30000 10017 21101 38246 48592 52009 80005 333 60007 95100=
15120 22997 53201 10087 20011 39843 40346 50002 80006 333 55310 00977 21877 30515 60007 91003 91103 99020=
15123 23/// /3301 10074 20018 39864 40356 50003 333 55310 0//// 21578 3//// 60007 91005 91108=
15124 26/// /2502 10083 20026 39797 40347 54001 333 60007 91003 91103=
15127 22598 30601 10049 21002 39438 42915 58003 83500 333 55310 0//// 21736 3//// 60007 91002 91103 95000=
15136 22998 00104 10098 21030 30235 40357 51004 333 55310 60007 91006 91106=
15138 22998 23302 10059 21059 39637 42922 52007 80001 333 55310 0//// 22078 3//// 60007 91005 91105=
15143 26/// /0901 10086 20012 39824 40347 50004 333 55310 0//// 21675 3//// 60007 91103=
15145 21496 40101 10061 20061 39970 40357 50003 71011 83240 333 60007 91002 91103=
15148 22498 62303 10001 21024 38821 48580 50001 84301 333 55309 0//// 22083 3//// 60007 91006 91106=
15150 22697 23501 10101 21010 30124 40340 58007 82100 333 60007 91004 91104=
15154 22697 23002 10101 21009 30188 40333 58008 81101 333 60007 91005 91105=
15160 22998 13603 10085 21040 30001 40345 50001 80001 333 60007 91005 91105=
15162 23/// /0000 10045 20018 39605 42918 50003 333 60007 91001 91101=
15163 25/65 /1601 10031 21011 38761 48607 53005 7000/ 333 55310 0//// 22102 3//// 60007=
15165 22497 33602 10068 20031 39707 42919 50006 83200 333 60007 91003 91103=
15168 26/// /2501 10077 20015 39699 42913 50001 333 60007 91003 91104=
15170 22598 60502 10071 20023 39534 42910 58003 86300 333 60007 91004 91104=
15179 26/// /3503 10070 21053 39775 40357 52010 333 55310 0//// 21584 3//// 60007 91107=
15182 22597 33102 10062 20042 30130 40353 51003 81101 333 60007 91003 91103=
15184 22499 32002 10025 20007 38939 48603 51007 83200 333 60007 91003 91104 95000 95120 444 37096=
15189 26/// /2102 10083 20050 39949 40340 50004 333 60007 91003 91103=
15194 22598 22902 10100 21012 30037 40335 58009 81230 333 60007 91004 91104=
15197 22997 12102 10103 21032 30124 40338 58005 81030 333 55310 0//// 21609 3//// 60007 91004 91104=
15199 22997 00303 10115 21046 30235 40341 50006 333 55310 60007 91005 91106=
15200 22998 00202 10103 21042 30210 40357 51005 333 60007 91004 91104=
15204 26/// /1801 10085 20035 30165 40360 50002 333 55308 0//// 21449 3//// 60007 91103=
15206 26/// /3203 10074 20026 30013 40352 50001 333 55310 0//// 21608 3//// 6///7=
15208 21496 61401 10086 20060 30040 40346 50003 71022 86600 333 55304 0//// 21259 3//// 60007 91003 91103=
15209 26/// /0103 10081 20018 39930 40348 50004 333 55310 0//// 21543 3//// 60007 91105=
15215 23/// /2001 10048 20021 39727 42918 50003 333 55300 0//// 20400 3//// 60007 91002 91102=
15217 22597 61701 10069 21005 39651 42917 50000 83870 333 60007 91004 91104=
15219 22997 23302 10106 21033 30201 40327 58006 82030 333 55310 60007 91005 91106=
15230 22597 50301 10094 20053 30050 40348 50004 85500 333 55310 00867 21857 30416 60007 91003 91104=
15231 21495 53201 10096 20069 30013 40342 50003 71022 85600 333 60007 91002 91103=
15235 21596 83000 10070 20058 39823 40352 50005 71022 8437/ 333 55300 60007 91001 91101=
15238 23/// /2501 10054 20021 39710 42919 50004 333 60007 91001 91102=
15245 26/// /0304 10115 21043 30259 40359 51007 333 55310 0//// 21600 3//// 60007 91107=
15247 22997 00203 10114 21055 30242 40349 51009 333 55310 00707 22058 30243 60007 91007 91107=
15254 22497 72000 10014 20014 38651 48596 51005 84370 333 60007 91001 91102=
15260 22598 72201 10080 20043 39799 40343 50005 84870 333 60007 91002 91103 95050=
15261 21596 82401 10034 20009 39507 42930 51004 71022 883// 333 55300 0//// 20411 3//// 60007 91002 91102 95090=
15262 21/93 93008 11028 21033 38293 48582 50000 74544 333 55302 0//// 21074 3//// 60007 91012 91112=
15264 22597 30301 10121 21015 30274 40346 58002 83800 333 60007 91004 91106=
15265 22997 10102 10114 21026 30263 40339 58003 81030 333 55309 0//// 21735 3//// 60007 91005 91106=
15270 21996 01401 10096 20096 30198 40353 50003 71000 333 55310 60007 91002 91102=
15277 26/// /0000 10068 20061 39711 42917 50005 333 55300 60007 91002 91102=
15279 21/91 90200 11032 21041 38019 48582 52006 74574 333 69987 91004 91105=
15280 21/90 92907 11051 21058 37569 47116 52002 74543 333 55300 0//// 20000 3//// 60007 91012 91114 92913=
15284 21/93 93204 11021 21021 38453 48589 52005 74544 333 60007=
15285 22997 80302 10032 21021 39321 42913 52006 8807/ 333 55300 0//// 20424 3//// 60007 91004 91106=
15289 22997 00204 10108 21013 30253 40358 51009 333 55310 0//// 21611 3//// 60007 91006 91107=
15292 21597 62801 10091 20067 30050 40349 50006 72842 83270 333 60007 91002 91102 95080=
15296 21550 81901 10053 20045 39609 42919 50009 72162 8772/ 333 55300 0//// 20219 3//// 69977 91002 91102 95080=
15297 26/// /3302 10020 21014 38769 48/// 52009 333 55300 0//// 20427 3//// 60007 91105=
15300 22497 81601 10047 20017 39694 42916 50005 8337/ 333 60007 91001 91102=
15301 21/93 92801 10002 21001 38742 48610 51006 74544 333 55300 0//// 20415 3//// 60007 91001 91102 92737=
15302 21/93 93101 10008 20008 39054 48591 51007 75154 333 55300 0//// 20227 3//// 69917 91003 91103=
15307 22570 80302 10094 21020 30149 40339 52002 8457/ 333 55300 0//// 20554 3//// 60007 91005 91106=
15310 22998 30202 10117 21013 30251 40338 50001 83030 333 55310 01253 22158 31414 60007 91004 91106=
15314 22598 30203 10097 20022 30002 40346 51008 81130 333 60007 91005 91106=
15315 22297 70302 10010 20000 38689 48610 52010 87500 333 60007 91003 91104=
15316 21/92 92701 10011 20008 38648 48597 51010 74544 333 55300 0//// 20418 3//// 60007 91002 91102=
15317 22197 72502 11004 21004 37905 48597 52007 87500 333 55303 0//// 21073 3//// 60007 91004 91105=
15319 26/// /1502 10059 20027 39648 42/// 50006 333 55300 0//// 20313 3//// 69917 91103=
15320 21/92 92001 11001 21001 38552 48598 51008 74574 333 60017 91002 91102=
15324 21524 81901 10033 20029 39523 42918 51006 71082 8537/ 333 55300 0//// 20165 3//// 69927 91003 91103=
15325 21296 80800 11005 21005 38584 48590 52004 71022 883// 333 60007 91002 91102=
15328 21597 81801 10063 20044 39988 40349 52005 71022 8552/ 333 55300 0//// 20221 3//// 60007 91002 91102=
15333 22998 30403 10121 21007 30319 40339 52002 83040 333 60007 91005 91106=
15335 22997 00604 10122 21045 30328 40335 54001 333 60007 91006 91106=
15337 22997 03608 10099 21050 30115 40323 50000 333 60007 91011 91112=
15338 22997 62602 10074 20030 39968 40351 52009 86070 333 60007 91003 91104 95000=
15340 21496 80701 10074 20053 30100 40354 52011 71022 8672/ 333 60007 91003 91103=
15341 21529 80502 10065 20059 30030 40343 52012 72055 885// 333 55300 0//// 20213 3//// 69947 91003 91104=
15344 21595 81601 10047 20038 39704 42921 52007 71062 885// 333 55300 0//// 20174 3//// 69927 91002 91103=
15345 21595 81302 10043 20034 39683 42921 51009 71022 886// 333 55300 0//// 20206 3//// 69907 91002 91103=
15346 22597 82000 10070 20054 30057 40353 52008 8657/ 333 60007 91002 91102 95090=
15347 21596 82102 10052 20042 39798 40353 52006 71062 8457/ 333 55300 0//// 20252 3//// 69967 91003 91103=
15349 22497 82901 10052 20025 39783 40353 51006 885// 333 55300 0//// 20285 3//// 60007 91002 91102=
15350 22997 70503 10094 21009 30227 40349 52006 87070 333 60007=
15360 22997 00106 10093 20003 30310 40324 50003 333 60007 91010 91110 92437=
15364 22998 80000 10076 20028 30041 40360 52012 8807/ 333 60007 91000 91101 95000=
15366 22997 81900 10089 20043 30107 40344 51015 8807/ 333 60007 91002 91102 95000=
15369 22597 80901 10066 20050 30027 40358 51013 885// 333 55300 0//// 20149 3//// 60007 91002 91103=
15373 21596 80701 10053 20048 39954 40349 52010 72162 8657/ 333 69927 91002 91103=
15375 21597 83402 10064 20046 39984 40353 51008 70262 885// 333 69917 91003 91103=
15377 22597 83602 10081 20044 30126 40348 51009 885// 333 60007 91003 91103=
15387 22997 00304 10110 21025 30325 40328 51004 333 55310 0//// 22345 3//// 60007 91008 91109=
15388 22997 52201 10097 20020 30248 40351 51010 84031 333 60007 91002 91102=
15395 22597 80804 10064 20040 30008 40358 51012 8637/ 333 60007 91005 91106=
15402 22597 80302 10097 21001 30271 40347 51008 885// 333 55300 0//// 20540 3//// 60007 91005 91105=
15405 22597 80204 10100 20006 30283 40347 51006 8257/ 333 55303 0//// 21092 3//// 60007 91005 91107=
15406 22497 53402 10110 20014 30290 40338 51005 85600 333 60007 91005 91105=
15408 22597 53604 10106 21017 30061 40332 51006 85500 333 55310 60007 91007 91109=
15409 22597 10206 10110 21007 30286 40336 51007 81100 333 55310 0//// 2//// 3//// 60007 91008 91108=
15410 22597 80502 10084 20061 30255 40352 51017 885// 333 60007 91003 91104=
15412 26/// /0903 10062 20034 39964 40355 51018 333 55300 0//// 20094 3//// 60007 91105=
15416 22597 80503 10071 20044 30092 40353 51011 8557/ 333 60007 91004 91106=
15419 22997 80101 10080 20038 30158 40358 51009 8802/ 333 60007 91003 91103=
15420 22597 80602 10093 20006 30232 40346 51008 885// 333 55300 0//// 20370 3//// 60007 91004 91104=
15421 22998 80502 10092 20014 30244 40357 51007 8807/ 333 55300 0//// 20458 3//// 60007 91004 91105=
15422 22997 80501 10095 20005 30243 40347 51008 8807/ 333 55300 0//// 20401 3//// 60007 91002 91103=
15425 22997 53503 10111 20017 30276 40340 50004 85030 333 60007 91005 91105=
15434 22597 80703 10078 20040 30136 40351 51012 8437/ 333 60007 91005 91106=
15444 22997 50402 10114 20003 30265 40337 50005 85070 333 55307 60007 91004 91105=
15445 22997 33502 10120 20019 30234 40343 50005 83040 333 55310 60007 91005 91105=
15450 21597 81004 10076 20043 30104 40344 51011 70282 8497/ 333 55300 00114 20213 30206 69927 91007 91107=
15455 22597 80702 10084 20029 30216 40350 51008 8557/ 333 55300 0//// 20449 3//// 60007 91004 91104=
15460 22997 50601 10107 20022 30316 40341 50006 85070 333 60007 91002 91104=
15462 22597 20504 10117 20000 30247 40334 50005 81140 333 60007 91006 91106=
15465 22597 81003 10088 20055 30269 40342 51015 8552/ 333 55300 0//// 20309 3//// 60007 91005 91106=
15469 22597 80904 10087 20036 30214 40348 51011 8437/ 333 60007 91005 91106=
15470 22597 80604 10086 20032 30216 40345 51009 8337/ 333 60007 91006 91108=
15475 22997 70502 10095 20026 30324 40345 50007 87070 333 55300 0//// 20812 3//// 60007 91004 91105=
15479 22997 63401 10101 20012 30140 40337 51009 86070 333 60007 91002 91102=
15480 22597 30302 10098 20034 30317 40334 51008 82130 333 60007 91003 91104 92427=
15482 22597 80402 10098 20057 30267 40344 51013 8457/ 333 60007 91004 91104=
15489 22997 80805 10094 20031 30249 40345 51007 8807/ 333 60007 91006 91108=
15490 22997 80804 10099 20034 30303 40343 51010 8807/ 333 55300 0//// 20715 3//// 60007 91007 91107=
15491 22497 80803 10091 20036 30313 40344 51009 8672/ 333 60007 91004 91105=
15494 21597 80902 10095 20065 30297 40343 51011 72162 8552/ 333 69927 91004 91105=
15498 22997 80804 10104 20037 30298 40341 51008 8807/ 333 60007 91007 91107=
15499 22997 10105 10098 20039 30323 40332 50011 81030 333 55308 60007 91007 91107 92427=
15502 42570 80202 10102 20058 30290 40330 51014 8555/ 333 10102 20082 555 574//=
15525 42560 72301 10092 20047 30052 40320 51010 83550 333 10094 20065 555 574//=
15549 42570 70503 10080 20011 39904 40326 52003 87500 333 10087 20055 555 562//=
15552 42470 60703 10108 21036 30275 40324 52004 82530 333 10110 20086 555 536// 92025 92428=
15600 41/00 90504 10000 20000 38409 48607 52010 74544 333 10006 20000 555 500//=
15614 42660 80000 10086 20031 39605 40316 52011 888// 333 10090 20070 555 568//=
15615 41/02 90504 11039 21065 37190 47941 52011 74941 333 11039 21055 555 582// 92712=
15640 42974 60903 10116 20043 30010 40324 52007 83054 333 10122 20067 555 561//=
15655 42570 30503 10114 20025 30296 40329 52014 83500 333 10115 20084 555 554// 92024 92428=
15712 42676 22703 10158 20037 30047 40294 51003 82201 333 10161 20079 555 544//=
15730 42670 70505 10105 20078 39918 40317 52007 86836 333 10106 20073 555 584//=
16014 46/// ///// 1//// 2//// 39235 4//// 57005 333 55000 2//// 555 2//// 3//12 4//// 5//// 62615 1/001 21110 31110 411// 50010 60010 70///=
16023 46/// /0000 10084 21033 30119 40353 52002 333 55047 20656 555 20064 3//81 40000 50000 60704 1/137 21111 31111 411// 51111 61111 7////=
16058 46/// ///// 1//// 2//// 3//// 4//// 5//// 333 55000 2//// 555 2//// 3//// 4//// 5//// 1/000 21111 31111 411// 50000 600/0 7////=
16060 46/// ///// 1//// 2//// 30030 4//// 52009 333 55029 2//// 555 2//// 3//// 4//// 5//// 62906 1/139 21111 31111 411// 50010 600/0 7////=
16068 46/// /3505 10094 21006 30209 40351 52012 333 55029 20294 555 20062 3//67 43505 51501 63308 1/134 21101 31111 411// 51111 61111 7////=
16089 46/// /3405 10090 20023 30263 40345 52008 333 55047 20222 555 20147 3//80 43405 5//// 63409 1/131 21111 31111 411// 51111 61111 7////=
16111 46/// ///// 11002 21045 38739 48576 52020 333 55030 20526 555 20014 3//16 4//// 5//// 63529 1/137 21111 30111 411// 50010 60010 7////=
16123 46/// /0711 10141 21052 30275 40288 52012 333 55023 20394 555 20158 3//80 40611 50703 60624 1/137 21111 31111 411// 51111 61111 7////=
16132 46/// ///// 10088 21006 30283 40344 52010 333 55000 20297 555 20079 3//69 4//// 5//// 1/131 21111 31111 411// 50011 61111 7////=
16190 46/// /3004 10097 20044 30138 40266 52014 333 55031 555 10854 20150 3//00 43002 50304 63111 1/133 21110 31111 411// 51111 61101 7////=
16192 46/// /2809 10091 20058 30062 40309 52015 333 55032 20320 555 2//// 3//// 42809 50101 62913 1/155 21111 31111 411// 51111 601/1 70///=
16231 46/// /2809 10122 20051 30082 40301 52012 333 55033 20520 555 20141 3//74 42806 5//// 63111 1/133 21111 31110 411// 51111 61111 7////=
16266 46/// /0109 10147 20088 30277 40282 52011 333 55033 20361 555 20164 3//// 43409 50103 63523 1/127 21111 31111 411// 51111 61101 7//// 3/133=
16271 46/// /3109 10124 20074 30247 40284 52014 333 55047 22047 555 20132 3//89 43110 53102 63118 1/124 21111 31111 411// 51111 61111 7////=
16288 46/// /0808 10142 20030 30175 40257 52010 333 55027 20882 555 20155 3//82 40807 51003 61422 1/134 21111 31111 411// 51111 61111 7////=
16314 46/// /0621 10111 20079 39689 40282 52010 333 55034 20427 555 20114 3//82 40622 51021 60628 1/126 21111 31111 411// 51111 61111 7//// 3/193=
16318 46/// ///// 1//// 2//// 3//// 4//// 5//// 333 55047 2//// 555 2//// 3//10 4//// 5//// 60127 1/135 21111 31111 411// 50000 60010 7////=
16334 46/// /0109 10174 20162 30132 40234 52007 333 55027 20145 555 20153 3//10 43509 50102 63416 1/133 21111 31111 411// 51111 61111 7//// 3/198=
16364 46/// ///// 1//// 2//// 39054 4//// 52007 333 55000 2//// 555 2//// 3//// 4//// 5//// 1/155 21111 31111 411// 50010 60010 70///=
16365 46/// /3111 10155 20035 39828 40224 52013 333 55034 20214 555 20167 3//10 40709 53111 60822 1/133 21111 31111 411// 51111 61111 7////=
16436 46/// /1110 10157 20122 30131 40285 52006 333 55000 20165 555 20160 3//81 41110 51703 61019 1/131 21111 31111 411// 50011 61111 7//// 3/144=
16442 46/// ///// 10091 20049 3//// 4//// 5//// 333 55000 20147 555 20087 3//// 4//// 5//// 1/142 21111 31110 411// 50001 61101 7////=
16464 46/// ///// 1//// 2//// 30208 4//// 52013 333 55000 2//// 555 2//// 3//63 4//// 5//// 61904 1/155 21111 31111 411// 50010 60010 7////=
16469 46/// ///// 1//// 2//// 3//// 4//// 5//// 333 55047 2//// 555 2//// 3//// 4//// 5//// 62114 79941 89982 1/137 21110 31110 411// 50000 60000 7////=
16741 42560 60119 10138 20055 30159 40250 52023 82106 333 82830 85065 91136=
17015 42670 23504 10115 20115 30284 40296 52007 82200 333 82835 91105 92428=
17020 42670 63203 10112 20051 30251 40291 50002 83250 333 83834 86360 91106=
17031 42470 73111 10092 20044 30276 40282 52007 84250 333 82715 84836 87360 91116=
17033 42670 73001 10116 20044 30272 40277 52002 84270 333 84834 87460 91106 92428=
17040 41670 72001 10103 20042 30272 40283 52006 70282 84250 333 84840 87360 91104 92428=
17046 42970 00903 10046 21081 38198 48538 56001 333 91108=
17058 42460 70416 10086 20060 30197 40314 52009 87500 333 84710 87620 91121=
17061 42670 70208 10091 20043 30230 40303 52008 87500 333 87635 91112 92428=
17063 42560 50414 10107 20044 30180 40303 52005 85200 333 85826 91122=
17064 42660 63604 10124 20049 30276 40298 51004 86200 333 86835 91109=
17066 42662 50503 10110 20040 30205 40299 51003 85200 333 85840 91108=
17072 42670 32003 10117 20029 30108 40286 50001 83200 333 83835 91106=
17077 42970 02302 10096 20024 39696 40279 58009 333 91105=
17080 42965 01503 10142 21028 39351 40220 57007 333 91108=
17089 42970 00402 10075 21085 38438 48524 57006 333 91106=
17094 42970 01801 10131 21089 38818 48522 57006 333 91106=
17095 42970 03102 10033 21048 38149 48522 52003 333 91105=
17109 42570 70211 10108 20069 30258 40285 52008 85250 333 85825 86359 91123=
17118 42960 00702 10115 20030 39996 40279 58003 333 91109=
17119 42670 50404 10112 20042 30294 40299 51004 83250 333 83835 85360 91113 92427=
17127 42965 20206 10130 21063 39261 40235 58002 80001 333 82070 91114=
17131 42960 30509 10127 21079 39281 40227 58003 80001 333 83070=
17135 42970 20705 10147 21030 39357 40223 58005 80001 333 82070 91111=
17143 42660 40825 10136 20028 30241 40257 50002 82101 333 82835 84070 91036 91140=
17155 42970 40205 10109 21048 39122 40234 52005 80001 333 84070 91110=
17165 42970 02103 10143 21042 39060 40178 57005=
17175 42665 30807 10147 20034 30239 40243 50006 83100 333 83840 91121 92437=
17185 42970 51014 10147 21026 39210 40211 50001 82031 333 82360 85070 91119=
17189 42970 23405 10119 21029 39077 48547 50002 82030 333 82360 91116=
17191 42970 00310 10133 21064 39105 40210 51006 333 91119=
17192 42975 20405 10144 21094 39106 40198 50003 82030 333 82360 91116=
17197 42960 02905 10153 21021 39120 40168 54000=
17208 42970 00303 10040 21018 38220 48524 51002 333 91112=
17221 42970 30105 10177 20062 30213 40219 52009 83030 333 83360 91120 92428=
17232 42970 30304 10190 20067 30173 40203 51001 80001 333 83070 91111 92428=
17238 42670 40303 10159 20007 39098 40179 50000 82101 333 82835 84070 91109=
17239 42970 03402 10124 21048 39078 48550 50005 333 91108=
17241 42970 00804 10155 20031 39202 40191 58002 333 91115=
17242 42970 43408 10129 21021 38910 48535 51001 80001 333 84070 91119=
17246 42970 40304 10130 21014 39039 48536 50002 80001 333 84070 91111=
17256 42660 22003 10171 20072 39557 40169 57006 82100 333 82840 91106=
17257 42670 60909 10146 20036 39234 40207 50002 81108 333 81835 86270 91114=
17261 42970 01902 10185 20037 39194 40163 58001 333 91107=
17262 42970 01403 10182 20040 39440 40187 50000 333 91108=
17265 42970 01102 10160 20051 39406 40181 57003 333 91106=
17271 42960 01402 10156 20065 39233 40174 50000 333 91106=
17287 42980 02505 10103 21050 38672 48522 52005 333 91109=
17291 41660 52909 10186 20133 30173 40186 58002 70242 81201 333 81835 85070 91111=
17296 42670 63302 10180 20096 30171 40175 58001 81108 333 81840 86270 91103 92418=
17297 42670 31504 10202 20130 30143 40176 52006 83100 333 83840 91112 92418=
17302 42570 51702 10182 20120 30113 40169 50003 85100 333 85830 91104 92428=
17310 42970 41403 10203 20178 30165 40172 52009 80001 333 84070 91105 92428=
17355 42670 22902 10217 20096 30048 40165 58003 82100 333 82835 91105=
17371 42970 41704 10166 20099 30097 40205 58004 80002 333 84070 91106=
17380 42670 30402 10193 20119 39988 40169 52005 83200 333 83835 91103 92428=
17500 42560 23404 10221 20116 30112 40169 51002 81102 333 81825=
17501 42560 30000 10175 20108 30154 40173 51003 81102 333 81825 83070 92427=
17505 42560 30105 10200 20132 30069 40180 51003 81102 333 81825 83070=
17507 42560 20703 10173 20118 30075 40188 52006 81102 333 81825=
17510 42960 40000 10196 20128 30162 40172 52007 80001 333 84070 92417=
17515 42560 30000 10222 20073 30015 40185 51002 81102 333 81825 83070=
17530 42560 33305 10229 20091 30121 40176 51001 81102 333 81825 83070=
17535 42560 30000 10215 20093 30131 40166 52010 81102 333 81825 83070=
17540 42560 40000 10190 20127 30163 40187 51004 81102 333 81830 84070 92417=
17547 42560 43111 10167 20137 39929 40169 52003 81102 333 81830 84070 92437=
17550 42560 33007 10179 20145 30027 40171 50002 81102 333 81825 83070 92437=
17572 42960 40000 10178 20126 30166 40190 51007 80001 333 84070 92417=



SMUS10 KWBC 210900
AAXX 21094
16008 42970 00106 11022 21091 38650 48599 58001 333 92845=
16020 42981 01502 10096 21049 30058 40347 58002=
16021 42984 03503 10010 21236 38067 48584 52013 333 92865=
16022 42989 03506 11007 21300 37953 48596 53020 333 55310 92835=
16033 42980 03600 10028 21042 38920 48614 58002 333 92852=
16036 42975 00905 10120 21022 30186 40329 52006=
16040 42965 01006 10026 21027 39423 42927 53002 333 92842=
16045 42980 10712 10122 21021 30264 40329 50004 80001 333 55310=
16052 42986 00308 11060 21300 36696 47139 52013 333 55310=
16054 46/// ///// 1//// 2//// 39685 4//// 52003 333 55028 2//// 555 2//// 3//64 4//// 5//// 61120 1/141 21110 31111 411// 50010 60010 7////=
16059 32981 01302 10099 21034 39982 40345 52012=
16061 42982 00000 10054 21013 39489 42918 53020 333 55310=
16064 42965 03404 10102 21003 30131 40346 51010 333 55310=
16066 32970 03103 10104 21045 30063 40346 52010=
16076 32970 02805 10102 21021 30051 40339 52008=
16080 32970 00902 10112 21027 30215 40346 52009=
16084 42970 00704 10100 21017 30167 40337 52012 333 55310=
16088 42960 02403 10108 20047 30225 40345 52016=
16098 42983 00710 10124 20011 30279 40331 51007=
16099 32960 00609 10115 21033 30315 40337 52004=
16101 46/// /0814 10090 21034 30327 40334 52005 333 55033 20194 555 20107 3//89 40814 51102 60721 1/155 21101 31111 411// 51111 61111 7////=
16105 32980 00513 10113 21019 30332 40334 52004=
16108 32960 00813 10128 21031 30319 40333 52003=
16110 42998 00317 10110 21035 30308 40313 53007 333 55310 555 0421/=
16114 42968 09902 10064 20009 39677 42928 52018=
16119 42965 03622 10050 21021 39720 40314 51007=
16120 42982 00116 10129 21038 30297 40302 51008 333 98582 555 0300/=
16125 42970 03310 10148 21005 30264 40276 52009=
16129 46/// /0110 10103 21009 39691 48595 52016 333 55047 20311 555 20108 3//// 40109 50903 60229 1/145 21110 31111 411// 51111 61101 7//// 3/155=
16134 42980 00820 11060 21087 37894 48591 52016 333 55310 92845=
16138 42970 00304 10110 20035 30322 40333 53010=
16140 32980 03004 10098 21004 30295 40341 52009=
16146 42997 03006 10050 20004 30321 40328 51012 333 55310 555 0211/=
16148 42966 02809 10090 20032 30317 40329 52010 333 55310=
16149 32980 02812 10109 20014 30311 40326 52012=
16153 42998 00220 10120 21012 30017 40284 52016 333 55310 555 0422/=
16158 42980 29903 10124 21005 30276 40284 51007 82030 333 55310 82360=
16168 42965 10720 10106 21028 39490 42844 52010 80001=
16170 32780 19904 10135 20003 30239 40291 52007 81500 333 81656=
16172 42570 30514 10114 20008 39989 40290 51008 82230 333 82825=
16179 42570 52507 10066 20017 39600 42877 51001 82530 333 82620 84356=
16191 32965 03209 10113 20066 30298 40317 52014=
16197 42975 20310 10090 20010 39787 40264 53017 82030 333 55310 82360=
16204 42873 11704 10086 21015 39332 42901 51010 81040 333 81357=
16206 42970 30311 10140 20035 30252 40260 51009 83030 333 83360=
16214 42998 02503 10150 20050 30236 40252 51012 333 55310 22029 555 0000/=
16216 42980 20515 10140 20016 39882 40248 52012 80001 333 55310 82099=
16219 46/// /1221 10021 21046 38181 48569 52014 333 55310 22063=
16224 42970 10209 10133 20017 39936 40254 51012 80001 333 55310 21741=
16230 32980 /3407 10141 20027 30290 40308 52010=
16232 42998 03120 10114 20057 30246 40300 52012 333 55310 555 0317/=
16234 42980 03001 10136 20034 30141 40249 52011=
16239 36/// /3511 10152 20033 30085 40242 52006=
16242 32/80 00409 10157 20016 30241 40247 52007=
16243 42965 02805 10168 20031 30200 40232 51006=
16244 42963 11202 10140 20032 30022 40244 51010 80001=
16245 42970 00108 10156 20017 30209 40235 53007=
16252 42980 03508 10070 20019 39340 42886 52017 333 55310=
16253 42970 20615 10154 20042 30231 40243 53011 82030 333 55310 82360=
16258 42465 53212 10062 20040 39260 42857 52011 82501 333 82615=
16261 42560 23015 10126 20083 30195 40268 53009 81130 333 55310 81830=
16263 42165 40609 10046 20018 38999 48555 52015 84500 333 84603=
16270 32965 03511 10135 20061 30207 40276 52011=
16280 42998 30611 10150 20100 30005 40226 52005 80002 333 55310 555 0321/=
16289 32960 00514 10163 20045 30129 40237 52006=
16294 42598 30508 10154 20072 30030 40223 51010 83500 333 83625 555 0211/=
16310 42998 23611 10156 20061 39983 40203 52006 82030 333 55310 82359 555 0100/=
16312 42460 23615 10120 20083 39839 40259 52008 82500 333 82618=
16316 42565 30509 10074 20035 39201 42853 51005 83100 333 83826 95065=
16320 32960 03312 10157 20103 30236 40253 52009=
16325 42997 03514 10168 20087 30233 40247 51011 333 98065 555 0213/=
16332 42960 03612 10164 20116 30177 40241 52007=
16337 42597 43015 10114 20042 39638 40210 52028 84500 333 84620 555 0216/=
16344 41665 50828 10062 20025 38338 48519 53008 72842 82031 333 55308 82340 95000 95100=
16360 42997 00208 10140 20102 30091 40226 51008 333 55310 555 0318/=
16362 42560 41211 10173 20074 30205 40221 53014 83180 333 81830=
16400 42597 80909 10142 20124 39917 40206 52008 82110 333 55300 82830 87463 555 0326/=
16405 32565 80615 10153 20111 30152 40176 52012 88220=
16420 42697 89901 10150 20108 30131 40196 53009 84576 333 55300 84635 85359 555 0100/=
16429 42568 83202 10160 20126 30166 40177 51013 8551/ 333 55300 85630 84460=
16434 42364 60918 10088 20033 38984 48490 51008 83270 333 83808 84358 86460 95070 95100=
16450 41/00 90310 10060 20060 39012 48479 51006 74544 333 89/00=
16453 42697 60721 10160 20099 30090 40172 51017 83470 333 55305 83635 84359 86460 91035 555 0423/=
16459 41556 70824 10148 20114 30172 40207 50007 71022 84580 333 84625 83356=
16460 31558 70721 10157 20107 30194 40209 52009 71022 83520 333 83630 85458=
16470 41458 70726 10132 20106 39919 40155 52005 71022 86810 333 55300 22/// 82810 84625 85460 95010=
16480 41496 80821 10146 20128 30110 40171 51010 71022 8523/ 333 55300 85815 87358 555 0500/=
16490 36/// /9901 10125 20117 30103 40127 52011=
16520 32780 50415 10135 20045 30201 40234 52005 81036 333 81356 86273=
16522 42798 50520 10130 20077 39985 40230 52021 82035 333 55308 82356 555 0300/=
16531 32670 60314 10140 20060 30245 40259 52011 82160 333 82845 85358=
16539 42598 70708 10124 20100 30102 40217 51016 81272 333 81830 84357 555 0499/=
16542 42497 50412 10142 20102 30220 40226 52007 82242 333 82815=
16546 42565 60311 10136 20111 30178 40206 53012 85406 333 83630 83650=
16550 42598 70430 10122 20065 30044 40225 51005 82270 333 55301 82830 83357 555 0431/=
16560 32680 29904 10151 20071 30212 40216 52012 82100 333 82845=
16564 42497 70546 10114 20079 30042 40185 53003 82271 333 82818 84357 555 0500/=
16597 31458 81018 10152 20135 30047 40155 51007 70262 8557/ 333 60007 85611 88359 91134 91230=
16606 42560 29902 10170 20033 40303 51008 81101 333 91107=
16613 46/// /9904 10108 20041 39570 40309 52008 333 91109=
16614 42560 50905 10124 20026 39515 40290 50009 84850 333 82825 84630 91115=
16622 42560 22806 10152 20061 30286 40296 52008 81105 333 91110 555 40000 47744 44210 50000 50108=
16624 42560 10816 10162 20038 30291 40298 52004 81100 333 91123 555 40000 47753 44245 50000 50104=
16627 42560 20519 10144 20034 30295 40300 52005 82100 333 91126 555 40000 47753 44220 50000 50094=
16632 42560 60810 10136 20075 39555 40294 52008 83450 333 83625 86357 91114 555 40000 47194 44200 50000 50106=
16641 42970 21307 10210 20065 30223 40229 52009 80001 333 91111 555 40000 47697 44200 50000 50136=
16642 42560 3//// 10154 20013 40238 52007 82205 333 82830 83068 555 40000 47289 44225 50000 50092=
16643 42960 20917 10200 20025 30233 40238 51007 80001 333 91125 555 40000 47709 44240 50000 50118=
16648 42560 51011 10160 20049 30213 40297 51010 81131 333 81830 83358 91116=
16650 42460 30424 10116 20061 30282 40286 52011 83100 333 91137 555 40000 47743 44220 50000 50090=
16667 42960 30106 10160 20072 30243 40249 51009 83030 333 91112 555 40000 47712 44200 50000 50116=
16675 46/// /1207 10162 20050 30284 40298 52009 333 91113=
16682 42960 10000 10206 20022 30199 40209 52003 80001 333 91106=
16684 42460 60217 10120 20056 30262 40286 52021 86800 333 82816 85620 91132=
16685 42960 20610 10204 20056 40205 51003 80001 333 91121 555 40000 47660 44190 50000 50130=
16706 42560 63419 10140 20061 40223 52010 81106 333 81830 86068 91133 555 40000 47699 44245 50000 50102=
16710 42960 13617 10136 21009 39474 40237 52008 80001 333 91127=
16715 42560 40220 10138 20037 40242 52014 81101 333 81825 84068 91138 555 40000 47502 44240 50000 50092=
16716 42560 30112 10168 20012 30196 40248 52008 81101 333 81830 83069 91122=
16726 42960 11806 10212 20057 40200 52002 80001 333 91109=
16732 46/// /3625 10143 2//// 30199 40210 52008 333 91132=
16738 46/// /0221 10146 20096 30022 40221 52008 333 91135=
16742 42560 43607 10176 20126 30033 40186 54000 81105 333 81825 83068 91118 555 40000 47558 44215 50000 50148=
16746 42560 60313 10154 20117 30034 40213 52009 86800 333 83820 85630 91122 555 40000 47557 44200 50000 50134=
16749 42860 42707 10190 20149 30165 40178 52005 84061 333 91110 555 40000 47660 44245 50000 50166=
16754 42460 63212 10166 20123 30160 40207 52010 86800 333 82818 85635 91117 555 40000 47654 44215 50000 50142=
16757 42560 43018 10162 20129 40201 52009 84500 333 91122=
16760 42260 63407 10136 20117 40215 52010 86700 333 83705 86625 91113=
16765 41459 23217 10192 20129 40185 52006 70500 81101 333 91124 555 70000 77W// 7/W//=
17022 42670 23206 10101 20066 30138 40307 52009 82200 333 82834 91108 92428=
17024 42970 02612 10116 20067 30203 40282 52005 333 91116 92438=
17026 42570 53208 10113 20050 30233 40272 52007 83250 333 83830 84359 91120 92438=
17030 42670 73605 10104 20031 30276 40281 52004 83250 333 83836 87359 91112 92428=
17034 42970 53503 10101 20052 30237 40284 52006 85030 333 85360 91105 92428=
17038 42570 70403 10102 20044 30229 40278 53005 87200 333 87830 91115 92428=
17042 41560 71102 10078 20077 30252 40292 52010 78088 84250 333 84830 87358 91108 92437=
17045 42670 63311 10063 20006 39516 40268 56001 83550 333 83640 86360 91119=
17050 42970 00106 10140 20040 30247 40310 58001 333 91115=
17052 42970 00504 10113 20033 30027 40309 51008 333 91112=
17056 42670 70210 10096 20054 30313 40317 52010 84230 333 84835 87360 91115 92428=
17059 42670 73502 10095 20056 30259 40306 52008 85270 333 85835 87360 91108 92428=
17060 42570 70510 10113 20046 30267 40308 51006 87500 333 84720 87627 91121=
17068 42560 43204 10108 20042 30217 40304 51004 84100 333 84830 91108=
17069 42670 63302 10103 20021 30257 40295 50003 84250 333 84840 86360 91107=
17070 42965 02802 10091 21025 39389 40270 58005 333 91104=
17074 42970 00106 10115 21031 39312 40255 57004 333 91110=
17082 42960 30416 10118 21014 39616 40242 58009 83030 333 83360 91123=
17084 42970 12202 10104 21017 39325 40233 58005 80001 333 81070 91105=
17085 42970 20603 10122 20000 39758 40250 58008 82030 333 82360 91110=
17086 42970 01810 10099 20005 39520 40237 57009 333 91116=
17088 42970 03304 10112 21088 38835 48536 57014 333 91108=
17090 42965 01302 10109 21053 38755 48527 57006=
17092 42970 00206 10116 21069 38886 48519 57008 333 91110=
17096 42970 00103 10019 21051 38260 48529 55000 333 91107=
17098 42960 01202 10052 21064 38208 48517 52001 333 91105=
17099 42960 01702 11007 21063 38380 48519 51001=
17100 42970 02403 10148 21024 39199 40191 57009 333 91112=
17112 42670 30414 10123 20045 30285 40287 52011 83100 333 83835 91123 92438=
17115 42460 40317 10100 20058 30248 40300 52006 84200 333 82715 84835 91126=
17116 42965 00208 10131 20034 30154 40277 58004 333 91112=
17120 42970 33203 10103 20008 39627 40271 50001 80001 333 83070 91107=
17124 42960 33406 10128 21045 39330 40243 50001 80001 333 83070 91113=
17128 42970 20309 10119 21094 39139 40240 50001 82030 333 82360 91116=
17129 42960 20106 10136 21064 39299 40237 58002 80001 333 82070 91111=
17130 42970 00507 10141 21047 39201 40224 50000 333 91114=
17140 42965 01308 10079 21056 38749 48534 51001 333 91117=
17150 42660 20215 10120 20045 30155 40280 58001 82100 333 82835 91125=
17160 42970 23305 10125 21061 39058 48537 50002 80001 333 82070 91114=
17170 42660 12907 10048 21036 38346 48518 50000 81500 333 81640 91115=
17180 42970 43004 10151 20061 30233 40237 51005 81044 333 81360 84070 91112 92418=
17184 42670 53309 10128 20034 30127 40239 50002 82102 333 82840 84070 91118=
17186 42670 50805 10145 20026 30147 40233 50002 83250 333 83837 85359 91113=
17193 42970 13604 10096 21056 38801 48546 50002 80001 333 81070 91111=
17195 42970 02803 10116 21024 39009 48531 58002 333 91108=
17200 42960 00606 10149 21013 39217 40197 58001 333 91110=
17202 42970 01004 10131 21004 39157 40200 58001 333 91109=
17203 42970 00302 10130 21053 38894 48550 57004 333 91105=
17204 42970 00402 10062 21023 38719 48528 50000 333 91107=
17210 42970 02002 10145 20005 39156 40180 56002=
17218 42960 51606 10158 20061 30222 40228 51006 82031 333 82360 85070 91113=
17219 42965 53621 10167 20052 30073 40216 51004 80001 333 85068 91128=
17220 42970 50311 10178 20031 30187 40221 51006 80001 333 85070 91118 92438=
17234 42970 42501 10197 20115 30127 40194 50000 80001 333 84070 91104=
17237 42970 22902 10167 20068 39702 40198 50001 80001 333 82070 91107=
17240 42970 40105 10151 21016 39069 40195 50000 80001 333 84070 91110=
17244 42970 43616 10133 21012 39034 48539 52007 81031 333 81360 84070 91128=
17248 42970 32101 10139 21003 39011 48528 50003 80001 333 83070 91109=
17250 42970 20408 10131 21067 38831 48529 50002 82030 333 82360 91117=
17260 42960 01804 10168 20033 39364 40172 58001 333 91110=
17270 42970 01501 10182 20068 39538 40175 58002 333 91106=
17275 42670 12004 10130 20039 39002 48528 52003 81200 333 81840 91112=
17280 42960 00904 10144 20027 39401 40188 58002 333 91109=
17282 42970 00501 10149 20005 39471 40186 58004 333 91104=
17285 42970 01603 10051 21040 38276 48528 58002 333 91106=
17290 42970 32801 10208 20120 30155 40187 51004 80001 333 83070 91107 92418=
17292 42970 52903 10173 20090 39440 40184 51003 80001 333 85070 91109=
17295 42960 61502 10197 20128 30172 40179 51001 80008 333 86268 91107=
17298 42970 51302 10216 20122 30158 40177 58003 82031 333 82360 83070 91108 92408=
17300 42560 43506 10238 20060 30106 40176 50001 84100 333 84830 91114=
17320 42670 51603 10202 20128 30170 40175 52006 82250 333 82840 85360 92428=
17330 42970 32703 10228 20047 30152 40170 58002 80001 333 83070=
17340 42670 52002 10202 20099 30159 40167 58001 82101 333 82835 85070 92428=
17350 42960 40000 10230 20083 30080 40157 58004 80001 333 84068=
17352 42960 00602 10233 20082 30138 40162 58005=
17370 42965 43604 10193 20120 30162 40166 50000 80001 333 84070 91107 92427=
17375 42670 31402 10199 20088 30164 40166 50002 81101 333 81836 83070 91104 92428=
17600 42565 32204 10201 20143 30162 40171 81202 333 81830 83075=
17601 42580 11908 10205 20152 30138 40169 51006 81101 90850 333 55310 2//// 81820=
17607 42680 23401 10241 20077 39976 40163 58001 81202 333 81840=
17609 42580 41103 10234 20058 30165 40168 50002 81202 333 81830 84075=